createdAt,value
2022-08-21T00:00:32.856Z,2.85
2022-08-21T00:03:07.811Z,2.65
2022-08-21T00:05:39.892Z,3.17
2022-08-21T00:08:08.232Z,2.70
2022-08-21T00:10:38.245Z,3.03
2022-08-21T00:13:07.324Z,2.83
2022-08-21T00:15:37.893Z,2.95
2022-08-21T00:18:07.206Z,3.08
2022-08-21T00:20:36.209Z,2.92
2022-08-21T00:23:04.375Z,2.83
2022-08-21T00:25:32.660Z,2.78
2022-08-21T00:28:02.938Z,3.10
2022-08-21T00:30:31.319Z,2.42
2022-08-21T00:33:00.415Z,2.55
2022-08-21T00:35:31.839Z,2.40
2022-08-21T00:37:59.857Z,3.17
2022-08-21T00:40:33.221Z,3.15
2022-08-21T00:43:04.204Z,2.70
2022-08-21T00:45:32.878Z,2.70
2022-08-21T00:48:01.133Z,2.60
2022-08-21T00:50:33.871Z,2.90
2022-08-21T00:53:03.407Z,2.50
2022-08-21T00:55:33.904Z,2.78
2022-08-21T00:58:05.497Z,2.47
2022-08-21T01:00:41.551Z,2.50
2022-08-21T01:03:13.994Z,3.30
2022-08-21T01:05:43.069Z,2.50
2022-08-21T01:08:12.955Z,2.30
2022-08-21T01:10:41.917Z,2.90
2022-08-21T01:13:13.736Z,2.85
2022-08-21T01:15:45.345Z,2.00
2022-08-21T01:18:15.722Z,2.60
2022-08-21T01:20:46.258Z,2.10
2022-08-21T01:23:15.954Z,2.05
2022-08-21T01:25:43.929Z,2.42
2022-08-21T01:28:16.237Z,2.27
2022-08-21T01:30:45.500Z,3.00
2022-08-21T01:33:13.609Z,2.20
2022-08-21T01:35:41.569Z,2.50
2022-08-21T01:38:10.115Z,2.70
2022-08-21T01:40:39.561Z,2.60
2022-08-21T01:43:07.564Z,2.47
2022-08-21T01:45:35.599Z,2.90
2022-08-21T01:48:04.104Z,2.22
2022-08-21T01:50:32.720Z,2.60
2022-08-21T01:53:00.664Z,2.65
2022-08-21T01:55:28.710Z,2.40
2022-08-21T01:57:59.703Z,3.03
2022-08-21T02:00:28.047Z,2.40
2022-08-21T02:02:56.969Z,2.40
2022-08-21T02:05:35.054Z,2.80
2022-08-21T02:08:03.485Z,2.95
2022-08-21T02:10:33.754Z,2.80
2022-08-21T02:13:03.126Z,2.28
2022-08-21T02:15:32.394Z,3.05
2022-08-21T02:18:02.921Z,2.65
2022-08-21T02:20:36.652Z,2.80
2022-08-21T02:23:05.075Z,2.50
2022-08-21T02:25:33.708Z,2.70
2022-08-21T02:28:06.642Z,2.70
2022-08-21T02:30:38.888Z,2.40
2022-08-21T02:33:07.570Z,2.20
2022-08-21T02:35:35.568Z,2.85
2022-08-21T02:38:06.789Z,2.95
2022-08-21T02:40:43.871Z,2.80
2022-08-21T02:43:19.554Z,2.72
2022-08-21T02:45:48.300Z,2.80
2022-08-21T02:48:19.632Z,2.42
2022-08-21T02:50:49.831Z,2.60
2022-08-21T02:53:18.525Z,2.80
2022-08-21T02:55:48.348Z,2.60
2022-08-21T02:58:20.231Z,3.20
2022-08-21T03:00:48.376Z,2.30
2022-08-21T03:03:16.466Z,3.00
2022-08-21T03:05:45.396Z,3.08
2022-08-21T03:08:16.585Z,2.30
2022-08-21T03:10:47.458Z,2.70
2022-08-21T03:13:17.734Z,2.50
2022-08-21T03:15:46.115Z,2.50
2022-08-21T03:18:14.935Z,3.00
2022-08-21T03:20:46.079Z,3.00
2022-08-21T03:23:18.427Z,2.35
2022-08-21T03:25:48.251Z,2.75
2022-08-21T03:28:20.458Z,2.10
2022-08-21T03:30:50.464Z,2.10
2022-08-21T03:33:20.640Z,2.25
2022-08-21T03:35:58.974Z,2.40
2022-08-21T03:38:28.067Z,2.00
2022-08-21T03:40:56.273Z,2.40
2022-08-21T03:43:25.719Z,2.40
2022-08-21T03:45:53.699Z,1.95
2022-08-21T03:48:22.180Z,2.20
2022-08-21T03:50:50.433Z,2.40
2022-08-21T03:53:18.895Z,2.00
2022-08-21T03:55:48.899Z,2.03
2022-08-21T03:58:17.991Z,2.40
2022-08-21T04:00:48.473Z,2.27
2022-08-21T04:03:16.541Z,2.40
2022-08-21T04:05:46.495Z,2.30
2022-08-21T04:08:15.679Z,2.35
2022-08-21T04:10:44.702Z,2.20
2022-08-21T04:13:13.068Z,2.30
2022-08-21T04:15:41.756Z,2.10
2022-08-21T04:18:11.232Z,2.20
2022-08-21T04:20:39.307Z,1.92
2022-08-21T04:23:07.750Z,2.60
2022-08-21T04:25:36.354Z,2.60
2022-08-21T04:28:05.159Z,2.30
2022-08-21T04:30:33.298Z,2.60
2022-08-21T04:33:01.346Z,2.78
2022-08-21T04:35:31.039Z,2.23
2022-08-21T04:37:59.379Z,1.83
2022-08-21T04:40:29.407Z,2.40
2022-08-21T04:43:02.614Z,2.33
2022-08-21T04:45:32.910Z,1.80
2022-08-21T04:48:04.198Z,2.33
2022-08-21T04:50:39.796Z,2.78
2022-08-21T04:53:10.645Z,2.60
2022-08-21T04:55:39.179Z,2.57
2022-08-21T04:58:08.748Z,2.70
2022-08-21T05:00:37.040Z,1.90
2022-08-21T05:03:08.869Z,2.45
2022-08-21T05:05:38.349Z,2.20
2022-08-21T05:08:08.877Z,2.28
2022-08-21T05:10:37.051Z,2.88
2022-08-21T05:13:06.382Z,2.00
2022-08-21T05:15:34.357Z,2.40
2022-08-21T05:18:02.318Z,2.38
2022-08-21T05:20:30.633Z,2.50
2022-08-21T05:23:00.066Z,2.83
2022-08-21T05:25:28.384Z,2.60
2022-08-21T05:28:00.756Z,2.35
2022-08-21T05:30:28.920Z,2.00
2022-08-21T05:33:00.006Z,2.50
2022-08-21T05:35:29.097Z,2.40
2022-08-21T05:37:59.036Z,2.70
2022-08-21T05:40:27.836Z,3.08
2022-08-21T05:42:57.276Z,2.60
2022-08-21T05:45:42.739Z,2.80
2022-08-21T05:48:13.858Z,2.80
2022-08-21T05:50:42.278Z,2.85
2022-08-21T05:53:12.299Z,3.60
2022-08-21T05:55:45.663Z,3.63
2022-08-21T05:58:14.322Z,3.97
2022-08-21T06:00:43.739Z,3.50
2022-08-21T06:03:17.849Z,3.30
2022-08-21T06:05:46.664Z,3.50
2022-08-21T06:08:16.689Z,3.22
2022-08-21T06:10:44.706Z,3.20
2022-08-21T06:13:13.721Z,3.70
2022-08-21T06:15:41.760Z,3.45
2022-08-21T06:18:09.905Z,3.50
2022-08-21T06:20:38.174Z,3.30
2022-08-21T06:23:06.559Z,3.95
2022-08-21T06:25:36.094Z,3.95
2022-08-21T06:28:05.217Z,4.05
2022-08-21T06:30:33.747Z,3.20
2022-08-21T06:33:02.465Z,3.65
2022-08-21T06:35:31.087Z,3.05
2022-08-21T06:37:59.676Z,3.80
2022-08-21T06:40:29.594Z,3.40
2022-08-21T06:43:01.324Z,2.85
2022-08-21T06:45:32.251Z,3.95
2022-08-21T06:48:00.950Z,3.72
2022-08-21T06:50:29.392Z,3.40
2022-08-21T06:53:06.025Z,3.80
2022-08-21T06:55:34.893Z,3.50
2022-08-21T06:58:04.874Z,4.05
2022-08-21T07:00:33.213Z,3.80
2022-08-21T07:03:01.252Z,3.70
2022-08-21T07:05:30.838Z,3.92
2022-08-21T07:07:59.127Z,3.60
2022-08-21T07:10:27.954Z,3.75
2022-08-21T07:13:00.477Z,3.40
2022-08-21T07:15:31.714Z,3.60
2022-08-21T07:18:00.110Z,3.53
2022-08-21T07:20:28.693Z,3.90
2022-08-21T07:22:57.662Z,3.00
2022-08-21T07:25:25.758Z,3.90
2022-08-21T07:27:53.727Z,3.00
2022-08-21T07:30:24.244Z,3.00
2022-08-21T07:32:53.863Z,3.20
2022-08-21T07:35:22.733Z,3.00
2022-08-21T07:37:50.942Z,2.60
2022-08-21T07:40:19.957Z,2.90
2022-08-21T07:42:51.014Z,2.67
2022-08-21T07:45:20.057Z,3.17
2022-08-21T07:47:48.273Z,3.30
2022-08-21T07:50:17.729Z,3.00
2022-08-21T07:52:45.954Z,3.60
2022-08-21T07:55:16.952Z,3.60
2022-08-21T07:57:45.299Z,3.35
2022-08-21T08:00:16.697Z,3.38
2022-08-21T08:02:47.537Z,2.65
2022-08-21T08:05:17.676Z,2.73
2022-08-21T08:07:45.920Z,3.00
2022-08-21T08:10:14.094Z,2.80
2022-08-21T08:12:43.945Z,3.00
2022-08-21T08:15:16.936Z,2.53
2022-08-21T08:17:45.149Z,2.60
2022-08-21T08:20:14.764Z,2.60
2022-08-21T08:22:44.145Z,2.78
2022-08-21T08:25:19.282Z,3.05
2022-08-21T08:27:47.189Z,3.20
2022-08-21T08:30:17.772Z,2.80
2022-08-21T08:32:46.416Z,3.15
2022-08-21T08:35:15.267Z,2.65
2022-08-21T08:37:46.749Z,3.20
2022-08-21T08:40:26.782Z,2.80
2022-08-21T08:42:54.672Z,2.70
2022-08-21T08:45:27.158Z,2.88
2022-08-21T08:47:59.053Z,2.50
2022-08-21T08:50:35.360Z,2.50
2022-08-21T08:53:08.984Z,3.40
2022-08-21T08:55:39.843Z,2.72
2022-08-21T08:58:08.872Z,2.90
2022-08-21T09:00:36.843Z,2.83
2022-08-21T09:03:05.136Z,2.88
2022-08-21T09:05:44.674Z,3.00
2022-08-21T09:08:27.988Z,3.00
2022-08-21T09:11:05.482Z,2.90
2022-08-21T09:13:45.970Z,2.35
2022-08-21T09:16:24.065Z,2.90
2022-08-21T09:19:01.828Z,2.63
2022-08-21T09:21:39.077Z,2.93
2022-08-21T09:24:33.441Z,3.00
2022-08-21T09:27:07.744Z,2.90
2022-08-21T09:29:41.277Z,2.97
2022-08-21T09:32:18.809Z,3.73
2022-08-21T09:34:59.092Z,2.40
2022-08-21T09:37:29.877Z,2.60
2022-08-21T09:40:00.440Z,2.80
2022-08-21T09:42:32.995Z,2.55
2022-08-21T09:45:14.884Z,3.30
2022-08-21T09:47:44.110Z,3.30
2022-08-21T09:50:14.779Z,2.70
2022-08-21T09:52:49.699Z,2.40
2022-08-21T09:55:45.408Z,2.47
2022-08-21T09:58:13.532Z,2.30
2022-08-21T10:00:41.538Z,3.30
2022-08-21T10:03:19.767Z,2.30
2022-08-21T10:05:57.326Z,1.85
2022-08-21T10:08:26.966Z,2.17
2022-08-21T10:10:59.377Z,2.47
2022-08-21T10:13:36.714Z,2.13
2022-08-21T10:16:17.544Z,2.00
2022-08-21T10:18:50.907Z,1.88
2022-08-21T10:21:24.521Z,1.80
2022-08-21T10:24:02.896Z,1.70
2022-08-21T10:26:52.593Z,1.73
2022-08-21T10:29:37.052Z,1.70
2022-08-21T10:32:25.635Z,2.03
2022-08-21T10:35:01.918Z,2.25
2022-08-21T10:37:43.127Z,1.52
2022-08-21T10:40:23.444Z,1.80
2022-08-21T10:43:10.607Z,1.60
2022-08-21T10:45:51.693Z,2.05
2022-08-21T10:48:26.966Z,2.13
2022-08-21T10:51:02.097Z,2.00
2022-08-21T10:53:43.563Z,1.73
2022-08-21T10:56:18.406Z,2.00
2022-08-21T10:58:59.179Z,2.05
2022-08-21T11:01:31.497Z,2.58
2022-08-21T11:04:13.423Z,1.70
2022-08-21T11:06:47.518Z,2.10
2022-08-21T11:09:19.648Z,1.95
2022-08-21T11:11:59.227Z,2.20
2022-08-21T11:14:50.596Z,2.10
2022-08-21T11:17:24.229Z,1.70
2022-08-21T11:19:55.458Z,2.15
2022-08-21T11:22:28.721Z,1.80
2022-08-21T11:25:02.586Z,1.80
2022-08-21T11:27:36.124Z,2.00
2022-08-21T11:30:07.171Z,1.80
2022-08-21T11:32:52.293Z,1.90
2022-08-21T11:35:34.446Z,2.00
2022-08-21T11:38:13.458Z,2.40
2022-08-21T11:40:54.531Z,1.70
2022-08-21T11:43:32.571Z,1.98
2022-08-21T11:46:18.937Z,1.85
2022-08-21T11:48:55.241Z,1.60
2022-08-21T11:51:29.682Z,2.00
2022-08-21T11:54:07.468Z,1.80
2022-08-21T11:56:41.310Z,1.90
2022-08-21T11:59:13.326Z,1.70
2022-08-21T12:01:47.126Z,1.73
2022-08-21T12:04:26.192Z,1.85
2022-08-21T12:06:54.845Z,1.70
2022-08-21T12:09:35.239Z,1.60
2022-08-21T12:12:06.745Z,1.40
2022-08-21T12:14:39.883Z,1.80
2022-08-21T12:17:12.261Z,1.90
2022-08-21T12:19:40.918Z,1.70
2022-08-21T12:22:15.893Z,1.60
2022-08-21T12:24:46.802Z,1.60
2022-08-21T12:27:31.013Z,1.92
2022-08-21T12:30:03.944Z,1.90
2022-08-21T12:32:45.713Z,1.70
2022-08-21T12:35:25.324Z,2.00
2022-08-21T12:38:00.918Z,1.50
2022-08-21T12:40:33.923Z,1.90
2022-08-21T12:43:04.350Z,2.08
2022-08-21T12:45:35.087Z,1.80
2022-08-21T12:48:10.421Z,2.10
2022-08-21T12:50:42.736Z,2.08
2022-08-21T12:53:26.015Z,1.98
2022-08-21T12:55:54.850Z,1.60
2022-08-21T12:58:24.065Z,1.50
2022-08-21T13:00:54.420Z,1.60
2022-08-21T13:03:25.233Z,1.77
2022-08-21T13:05:55.263Z,1.85
2022-08-21T13:08:26.427Z,2.15
2022-08-21T13:11:00.205Z,1.70
2022-08-21T13:13:44.622Z,1.27
2022-08-21T13:16:22.436Z,1.50
2022-08-21T13:19:01.386Z,1.52
2022-08-21T13:21:32.533Z,1.50
2022-08-21T13:24:40.730Z,1.40
2022-08-21T13:27:04.206Z,1.77
2022-08-21T13:29:35.853Z,1.48
2022-08-21T13:32:09.640Z,1.60
2022-08-21T13:34:40.336Z,1.50
2022-08-21T13:37:10.688Z,1.77
2022-08-21T13:39:39.582Z,1.67
2022-08-21T13:42:14.349Z,1.30
2022-08-21T13:44:44.851Z,1.88
2022-08-21T13:47:15.236Z,1.63
2022-08-21T13:49:47.299Z,1.60
2022-08-21T13:52:18.531Z,1.70
2022-08-21T13:54:53.311Z,1.40
2022-08-21T13:57:26.436Z,1.60
2022-08-21T13:59:54.326Z,1.20
2022-08-21T14:02:24.937Z,1.40
2022-08-21T14:04:58.520Z,1.52
2022-08-21T14:07:33.354Z,1.40
2022-08-21T14:10:04.145Z,1.60
2022-08-21T14:12:36.472Z,1.80
2022-08-21T14:15:07.069Z,1.45
2022-08-21T14:17:37.734Z,1.45
2022-08-21T14:20:10.493Z,1.40
2022-08-21T14:22:42.049Z,1.50
2022-08-21T14:25:14.268Z,1.20
2022-08-21T14:27:46.440Z,2.00
2022-08-21T14:30:19.894Z,1.48
2022-08-21T14:32:48.404Z,1.70
2022-08-21T14:35:18.713Z,1.40
2022-08-21T14:37:52.382Z,1.77
2022-08-21T14:40:21.240Z,1.90
2022-08-21T14:42:50.435Z,1.30
2022-08-21T14:45:23.861Z,1.58
2022-08-21T14:47:55.012Z,2.00
2022-08-21T14:50:24.660Z,1.80
2022-08-21T14:52:56.176Z,1.48
2022-08-21T14:55:24.163Z,1.80
2022-08-21T14:57:54.896Z,1.77
2022-08-21T15:00:26.935Z,1.73
2022-08-21T15:03:03.932Z,1.90
2022-08-21T15:05:34.114Z,1.40
2022-08-21T15:08:02.657Z,1.65
2022-08-21T15:10:33.600Z,1.30
2022-08-21T15:13:01.870Z,1.60
2022-08-21T15:15:30.756Z,1.70
2022-08-21T15:17:58.647Z,1.58
2022-08-21T15:20:26.630Z,1.70
2022-08-21T15:22:55.975Z,1.60
2022-08-21T15:25:24.357Z,2.13
2022-08-21T15:27:52.928Z,1.70
2022-08-21T15:30:21.113Z,2.10
2022-08-21T15:32:49.050Z,1.90
2022-08-21T15:35:17.205Z,1.55
2022-08-21T15:37:45.107Z,1.52
2022-08-21T15:40:15.247Z,2.20
2022-08-21T15:42:44.192Z,1.70
2022-08-21T15:45:13.753Z,2.10
2022-08-21T15:47:45.896Z,1.50
2022-08-21T15:50:14.319Z,2.30
2022-08-21T15:52:42.603Z,2.20
2022-08-21T15:55:11.848Z,2.03
2022-08-21T15:57:57.264Z,1.40
2022-08-21T16:00:27.390Z,1.75
2022-08-21T16:02:58.065Z,1.80
2022-08-21T16:05:26.111Z,2.00
2022-08-21T16:07:54.927Z,2.05
2022-08-21T16:10:28.526Z,1.97
2022-08-21T16:13:03.954Z,1.70
2022-08-21T16:15:32.117Z,1.90
2022-08-21T16:18:00.676Z,1.80
2022-08-21T16:20:30.560Z,1.80
2022-08-21T16:22:59.914Z,1.70
2022-08-21T16:25:28.375Z,2.10
2022-08-21T16:28:00.614Z,2.00
2022-08-21T16:30:30.425Z,2.00
2022-08-21T16:32:58.700Z,1.80
2022-08-21T16:35:26.690Z,2.22
2022-08-21T16:37:54.735Z,1.80
2022-08-21T16:40:23.915Z,1.95
2022-08-21T16:42:52.319Z,2.00
2022-08-21T16:45:22.336Z,1.77
2022-08-21T16:47:51.269Z,1.77
2022-08-21T16:50:24.016Z,1.70
2022-08-21T16:52:52.855Z,1.63
2022-08-21T16:55:20.818Z,2.00
2022-08-21T16:57:48.841Z,2.13
2022-08-21T17:00:17.869Z,1.83
2022-08-21T17:02:50.425Z,2.17
2022-08-21T17:05:18.512Z,1.92
2022-08-21T17:07:47.121Z,1.88
2022-08-21T17:10:17.121Z,2.23
2022-08-21T17:12:51.445Z,2.10
2022-08-21T17:15:22.387Z,2.30
2022-08-21T17:17:52.528Z,2.50
2022-08-21T17:20:21.871Z,2.28
2022-08-21T17:22:50.170Z,2.10
2022-08-21T17:25:18.218Z,2.33
2022-08-21T17:27:46.925Z,2.63
2022-08-21T17:30:16.554Z,2.00
2022-08-21T17:32:46.676Z,2.00
2022-08-21T17:35:16.199Z,2.00
2022-08-21T17:37:44.329Z,2.10
2022-08-21T17:40:15.380Z,1.80
2022-08-21T17:42:44.519Z,1.90
2022-08-21T17:45:15.622Z,1.92
2022-08-21T17:47:43.936Z,2.20
2022-08-21T17:50:16.774Z,2.38
2022-08-21T17:52:50.789Z,2.10
2022-08-21T17:55:20.301Z,2.00
2022-08-21T17:57:51.209Z,2.17
2022-08-21T18:00:21.354Z,1.90
2022-08-21T18:02:51.135Z,1.70
2022-08-21T18:05:20.489Z,2.47
2022-08-21T18:07:48.633Z,2.08
2022-08-21T18:10:16.680Z,2.10
2022-08-21T18:12:45.823Z,2.33
2022-08-21T18:15:16.277Z,1.70
2022-08-21T18:17:46.988Z,2.40
2022-08-21T18:20:17.725Z,2.20
2022-08-21T18:22:47.802Z,3.00
2022-08-21T18:25:16.556Z,2.20
2022-08-21T18:27:46.341Z,2.40
2022-08-21T18:30:15.608Z,2.20
2022-08-21T18:32:43.800Z,2.15
2022-08-21T18:35:14.180Z,2.10
2022-08-21T18:37:42.113Z,2.20
2022-08-21T18:40:12.915Z,2.20
2022-08-21T18:42:43.439Z,2.30
2022-08-21T18:45:23.412Z,2.30
2022-08-21T18:47:58.230Z,2.30
2022-08-21T18:50:29.179Z,2.35
2022-08-21T18:52:57.433Z,2.30
2022-08-21T18:55:27.568Z,2.00
2022-08-21T18:57:57.431Z,2.10
2022-08-21T19:00:28.915Z,2.40
2022-08-21T19:02:57.530Z,2.00
2022-08-21T19:05:25.764Z,2.30
2022-08-21T19:07:55.172Z,2.10
2022-08-21T19:10:27.702Z,2.10
2022-08-21T19:12:59.612Z,1.83
2022-08-21T19:15:29.828Z,2.10
2022-08-21T19:17:59.191Z,2.00
2022-08-21T19:20:30.765Z,1.50
2022-08-21T19:22:58.746Z,2.22
2022-08-21T19:25:33.014Z,1.70
2022-08-21T19:28:23.045Z,1.80
2022-08-21T19:30:56.755Z,2.03
2022-08-21T19:33:30.824Z,2.28
2022-08-21T19:36:02.059Z,1.80
2022-08-21T19:38:30.419Z,1.95
2022-08-21T19:41:00.458Z,1.77
2022-08-21T19:43:30.766Z,2.50
2022-08-21T19:45:59.482Z,1.83
2022-08-21T19:48:29.238Z,1.80
2022-08-21T19:50:57.378Z,2.00
2022-08-21T19:53:26.046Z,1.50
2022-08-21T19:55:55.071Z,1.90
2022-08-21T19:58:32.980Z,1.92
2022-08-21T20:01:01.020Z,2.20
2022-08-21T20:03:29.291Z,1.80
2022-08-21T20:05:57.244Z,2.38
2022-08-21T20:08:28.097Z,1.80
2022-08-21T20:10:58.456Z,2.10
2022-08-21T20:13:33.961Z,2.20
2022-08-21T20:16:03.352Z,2.20
2022-08-21T20:18:32.447Z,2.20
2022-08-21T20:21:00.497Z,2.20
2022-08-21T20:23:30.329Z,1.55
2022-08-21T20:26:01.586Z,2.10
2022-08-21T20:28:31.509Z,2.13
2022-08-21T20:31:01.512Z,2.17
2022-08-21T20:33:31.364Z,2.40
2022-08-21T20:36:01.425Z,1.85
2022-08-21T20:38:29.409Z,2.20
2022-08-21T20:40:57.403Z,2.58
2022-08-21T20:43:25.457Z,1.90
2022-08-21T20:45:57.313Z,1.97
2022-08-21T20:48:29.314Z,1.88
2022-08-21T20:51:03.450Z,2.10
2022-08-21T20:53:43.578Z,2.38
2022-08-21T20:56:18.032Z,1.90
2022-08-21T20:58:52.516Z,1.85
2022-08-21T21:01:22.138Z,2.10
2022-08-21T21:03:56.308Z,2.33
2022-08-21T21:06:28.813Z,2.10
2022-08-21T21:09:02.362Z,2.30
2022-08-21T21:11:34.394Z,2.20
2022-08-21T21:14:11.405Z,2.30
2022-08-21T21:16:51.244Z,2.20
2022-08-21T21:19:28.788Z,2.15
2022-08-21T21:22:09.075Z,2.42
2022-08-21T21:24:42.549Z,2.22
2022-08-21T21:27:18.564Z,2.40
2022-08-21T21:29:53.108Z,2.00
2022-08-21T21:32:22.833Z,2.60
2022-08-21T21:34:51.378Z,2.05
2022-08-21T21:37:25.795Z,2.15
2022-08-21T21:40:01.636Z,2.08
2022-08-21T21:42:39.066Z,2.30
2022-08-21T21:45:18.515Z,2.50
2022-08-21T21:48:03.315Z,2.00
2022-08-21T21:50:43.583Z,2.30
2022-08-21T21:53:30.058Z,1.92
2022-08-21T21:56:09.915Z,2.55
2022-08-21T21:58:54.790Z,2.22
2022-08-21T22:01:37.885Z,2.22
2022-08-21T22:04:17.025Z,2.30
2022-08-21T22:07:00.743Z,2.38
2022-08-21T22:09:42.241Z,2.30
2022-08-21T22:12:29.203Z,1.90
2022-08-21T22:14:57.277Z,2.70
2022-08-21T22:17:34.923Z,2.20
2022-08-21T22:20:08.888Z,2.90
2022-08-21T22:22:42.754Z,2.20
2022-08-21T22:25:18.132Z,2.35
2022-08-21T22:27:50.173Z,2.47
2022-08-21T22:30:40.279Z,2.92
2022-08-21T22:33:13.908Z,2.40
2022-08-21T22:35:43.810Z,2.40
2022-08-21T22:38:20.208Z,2.50
2022-08-21T22:40:50.572Z,3.08
2022-08-21T22:43:21.085Z,2.53
2022-08-21T22:48:58.441Z,2.08
2022-08-21T22:51:33.194Z,2.30
2022-08-21T22:54:02.466Z,2.47
2022-08-21T22:56:35.847Z,2.23
2022-08-21T22:59:07.388Z,2.20
2022-08-21T23:01:43.716Z,2.15
2022-08-21T23:04:20.140Z,2.35
2022-08-21T23:06:51.989Z,2.60
2022-08-21T23:09:30.653Z,2.30
2022-08-21T23:12:21.115Z,2.40
2022-08-21T23:14:54.667Z,2.88
2022-08-21T23:17:34.437Z,2.40
2022-08-21T23:20:11.176Z,2.45
2022-08-21T23:22:51.460Z,2.30
2022-08-21T23:25:42.371Z,2.40
2022-08-21T23:31:17.408Z,2.60
2022-08-21T23:34:06.140Z,2.42
2022-08-21T23:37:02.288Z,2.65
2022-08-21T23:39:51.523Z,2.40
2022-08-21T23:42:35.225Z,2.40
2022-08-21T23:45:13.669Z,2.50
2022-08-21T23:47:52.036Z,2.95
2022-08-21T23:50:26.858Z,2.50
2022-08-21T23:53:09.450Z,2.17
2022-08-21T23:55:55.312Z,2.95
2022-08-21T23:58:33.481Z,2.40
